sensor_id;sensor_type;location;lat;lon;timestamp;temperature;humidity
25923;DHT22;13725;51.170;4.442;2022-10-17T00:01:43;15.70;99.90
25923;DHT22;13725;51.170;4.442;2022-10-17T00:04:09;15.80;99.90
25923;DHT22;13725;51.170;4.442;2022-10-17T00:06:35;15.70;99.90
25923;DHT22;13725;51.170;4.442;2022-10-17T00:09:01;15.70;99.90
25923;DHT22;13725;51.170;4.442;2022-10-17T00:11:27;15.70;99.90
25923;DHT22;13725;51.170;4.442;2022-10-17T00:13:54;15.80;99.90
25923;DHT22;13725;51.170;4.442;2022-10-17T00:16:31;15.70;99.90
25923;DHT22;13725;51.170;4.442;2022-10-17T00:18:58;15.60;99.90
25923;DHT22;13725;51.170;4.442;2022-10-17T00:21:25;15.60;99.90
25923;DHT22;13725;51.170;4.442;2022-10-17T00:23:51;15.60;99.90
25923;DHT22;13725;51.170;4.442;2022-10-17T00:26:17;15.70;99.90
25923;DHT22;13725;51.170;4.442;2022-10-17T00:28:51;15.60;99.90
25923;DHT22;13725;51.170;4.442;2022-10-17T00:31:18;15.60;99.90
25923;DHT22;13725;51.170;4.442;2022-10-17T00:33:45;15.60;99.90
25923;DHT22;13725;51.170;4.442;2022-10-17T00:36:19;15.70;99.90
25923;DHT22;13725;51.170;4.442;2022-10-17T00:38:48;15.60;99.90
25923;DHT22;13725;51.170;4.442;2022-10-17T00:41:18;15.70;99.90
25923;DHT22;13725;51.170;4.442;2022-10-17T00:44:00;15.60;99.90
25923;DHT22;13725;51.170;4.442;2022-10-17T00:46:31;15.60;99.90
25923;DHT22;13725;51.170;4.442;2022-10-17T00:49:02;15.60;99.90
25923;DHT22;13725;51.170;4.442;2022-10-17T00:51:46;15.60;99.90
25923;DHT22;13725;51.170;4.442;2022-10-17T00:54:15;15.60;99.90
25923;DHT22;13725;51.170;4.442;2022-10-17T00:56:42;15.50;99.90
25923;DHT22;13725;51.170;4.442;2022-10-17T00:59:10;15.60;99.90
25923;DHT22;13725;51.170;4.442;2022-10-17T01:01:39;15.50;99.90
25923;DHT22;13725;51.170;4.442;2022-10-17T01:04:05;15.60;99.90
25923;DHT22;13725;51.170;4.442;2022-10-17T01:06:31;15.50;99.90
25923;DHT22;13725;51.170;4.442;2022-10-17T01:08:57;15.50;99.90
25923;DHT22;13725;51.170;4.442;2022-10-17T01:11:58;15.70;99.90
25923;DHT22;13725;51.170;4.442;2022-10-17T01:15:56;15.60;99.90
25923;DHT22;13725;51.170;4.442;2022-10-17T01:26:21;15.60;99.90
25923;DHT22;13725;51.170;4.442;2022-10-17T01:31:44;15.60;99.90
25923;DHT22;13725;51.170;4.442;2022-10-17T01:37:02;15.50;99.90
25923;DHT22;13725;51.170;4.442;2022-10-17T01:47:09;15.50;99.90
25923;DHT22;13725;51.170;4.442;2022-10-17T01:49:39;15.60;99.90
25923;DHT22;13725;51.170;4.442;2022-10-17T01:52:12;15.70;99.90
25923;DHT22;13725;51.170;4.442;2022-10-17T01:54:40;15.60;99.90
25923;DHT22;13725;51.170;4.442;2022-10-17T01:57:14;15.50;99.90
25923;DHT22;13725;51.170;4.442;2022-10-17T01:59:45;15.50;99.90
25923;DHT22;13725;51.170;4.442;2022-10-17T02:02:13;15.50;99.90
25923;DHT22;13725;51.170;4.442;2022-10-17T02:04:41;15.50;99.90
25923;DHT22;13725;51.170;4.442;2022-10-17T02:07:08;15.40;99.90
25923;DHT22;13725;51.170;4.442;2022-10-17T02:09:36;15.50;99.90
25923;DHT22;13725;51.170;4.442;2022-10-17T02:25:37;15.50;99.90
25923;DHT22;13725;51.170;4.442;2022-10-17T02:31:09;15.60;99.90
25923;DHT22;13725;51.170;4.442;2022-10-17T02:33:46;15.50;99.90
25923;DHT22;13725;51.170;4.442;2022-10-17T02:36:23;15.60;99.90
25923;DHT22;13725;51.170;4.442;2022-10-17T02:38:51;15.60;99.90
25923;DHT22;13725;51.170;4.442;2022-10-17T02:41:19;15.60;99.90
25923;DHT22;13725;51.170;4.442;2022-10-17T02:43:47;15.70;99.90
25923;DHT22;13725;51.170;4.442;2022-10-17T02:46:17;15.60;99.90
25923;DHT22;13725;51.170;4.442;2022-10-17T02:49:02;15.60;99.90
25923;DHT22;13725;51.170;4.442;2022-10-17T02:57:07;15.70;99.90
25923;DHT22;13725;51.170;4.442;2022-10-17T02:59:36;15.70;99.90
25923;DHT22;13725;51.170;4.442;2022-10-17T03:02:07;15.70;99.90
25923;DHT22;13725;51.170;4.442;2022-10-17T03:04:33;15.90;99.90
25923;DHT22;13725;51.170;4.442;2022-10-17T03:06:58;15.70;99.90
25923;DHT22;13725;51.170;4.442;2022-10-17T03:09:24;15.70;99.90
25923;DHT22;13725;51.170;4.442;2022-10-17T03:11:50;15.70;99.90
25923;DHT22;13725;51.170;4.442;2022-10-17T03:14:17;15.70;99.90
25923;DHT22;13725;51.170;4.442;2022-10-17T03:16:43;15.80;99.90
25923;DHT22;13725;51.170;4.442;2022-10-17T03:19:08;15.80;99.90
25923;DHT22;13725;51.170;4.442;2022-10-17T03:21:34;16.00;99.90
25923;DHT22;13725;51.170;4.442;2022-10-17T03:24:02;16.10;99.90
25923;DHT22;13725;51.170;4.442;2022-10-17T03:26:29;16.00;99.90
25923;DHT22;13725;51.170;4.442;2022-10-17T03:28:55;16.00;99.90
25923;DHT22;13725;51.170;4.442;2022-10-17T03:31:22;16.10;99.90
25923;DHT22;13725;51.170;4.442;2022-10-17T03:33:48;16.20;99.90
25923;DHT22;13725;51.170;4.442;2022-10-17T03:36:16;16.30;99.90
25923;DHT22;13725;51.170;4.442;2022-10-17T03:38:44;16.30;99.90
25923;DHT22;13725;51.170;4.442;2022-10-17T03:41:10;16.30;99.90
25923;DHT22;13725;51.170;4.442;2022-10-17T03:43:38;16.40;99.90
25923;DHT22;13725;51.170;4.442;2022-10-17T03:46:05;16.40;99.90
25923;DHT22;13725;51.170;4.442;2022-10-17T03:48:33;16.40;99.90
25923;DHT22;13725;51.170;4.442;2022-10-17T03:51:03;16.50;99.90
25923;DHT22;13725;51.170;4.442;2022-10-17T03:53:32;16.50;99.90
25923;DHT22;13725;51.170;4.442;2022-10-17T03:58:40;16.50;99.90
25923;DHT22;13725;51.170;4.442;2022-10-17T04:01:09;16.50;99.90
25923;DHT22;13725;51.170;4.442;2022-10-17T04:03:36;16.50;99.90
25923;DHT22;13725;51.170;4.442;2022-10-17T04:06:03;16.60;99.90
25923;DHT22;13725;51.170;4.442;2022-10-17T04:08:32;16.60;99.90
25923;DHT22;13725;51.170;4.442;2022-10-17T04:11:11;16.70;99.90
25923;DHT22;13725;51.170;4.442;2022-10-17T04:13:38;16.60;99.90
25923;DHT22;13725;51.170;4.442;2022-10-17T04:16:08;16.70;99.90
25923;DHT22;13725;51.170;4.442;2022-10-17T04:18:40;16.70;99.90
25923;DHT22;13725;51.170;4.442;2022-10-17T04:21:09;16.80;99.90
25923;DHT22;13725;51.170;4.442;2022-10-17T04:23:35;16.80;99.90
25923;DHT22;13725;51.170;4.442;2022-10-17T04:26:11;16.80;99.90
25923;DHT22;13725;51.170;4.442;2022-10-17T04:28:38;16.90;99.90
25923;DHT22;13725;51.170;4.442;2022-10-17T04:31:07;16.90;99.90
25923;DHT22;13725;51.170;4.442;2022-10-17T04:33:53;17.00;99.90
25923;DHT22;13725;51.170;4.442;2022-10-17T04:36:19;17.00;99.90
25923;DHT22;13725;51.170;4.442;2022-10-17T04:38:45;17.00;99.90
25923;DHT22;13725;51.170;4.442;2022-10-17T04:41:15;17.10;99.90
25923;DHT22;13725;51.170;4.442;2022-10-17T04:43:41;17.10;99.90
25923;DHT22;13725;51.170;4.442;2022-10-17T04:46:10;17.20;99.90
25923;DHT22;13725;51.170;4.442;2022-10-17T04:48:38;17.20;99.90
25923;DHT22;13725;51.170;4.442;2022-10-17T04:51:07;17.30;99.90
25923;DHT22;13725;51.170;4.442;2022-10-17T04:53:40;17.10;99.90
25923;DHT22;13725;51.170;4.442;2022-10-17T04:56:09;17.10;99.90
25923;DHT22;13725;51.170;4.442;2022-10-17T04:58:37;17.00;99.90
25923;DHT22;13725;51.170;4.442;2022-10-17T05:01:05;17.00;99.90
25923;DHT22;13725;51.170;4.442;2022-10-17T05:03:31;16.90;99.90
25923;DHT22;13725;51.170;4.442;2022-10-17T05:05:57;16.90;99.90
25923;DHT22;13725;51.170;4.442;2022-10-17T05:08:23;16.90;99.90
25923;DHT22;13725;51.170;4.442;2022-10-17T05:10:49;16.90;99.90
25923;DHT22;13725;51.170;4.442;2022-10-17T05:13:15;16.90;99.90
25923;DHT22;13725;51.170;4.442;2022-10-17T05:15:41;16.90;99.90
25923;DHT22;13725;51.170;4.442;2022-10-17T05:18:07;16.90;99.90
25923;DHT22;13725;51.170;4.442;2022-10-17T05:20:33;16.90;99.90
25923;DHT22;13725;51.170;4.442;2022-10-17T05:22:59;16.90;99.90
25923;DHT22;13725;51.170;4.442;2022-10-17T05:25:30;17.00;99.90
25923;DHT22;13725;51.170;4.442;2022-10-17T05:27:56;16.90;99.90
25923;DHT22;13725;51.170;4.442;2022-10-17T05:30:21;17.00;99.90
25923;DHT22;13725;51.170;4.442;2022-10-17T05:32:53;17.00;99.90
25923;DHT22;13725;51.170;4.442;2022-10-17T05:35:20;17.10;99.90
25923;DHT22;13725;51.170;4.442;2022-10-17T05:37:46;17.10;99.90
25923;DHT22;13725;51.170;4.442;2022-10-17T05:40:14;17.20;99.90
25923;DHT22;13725;51.170;4.442;2022-10-17T05:42:45;17.10;99.90
25923;DHT22;13725;51.170;4.442;2022-10-17T05:45:11;17.20;99.90
25923;DHT22;13725;51.170;4.442;2022-10-17T05:47:37;17.20;99.90
25923;DHT22;13725;51.170;4.442;2022-10-17T05:50:03;17.30;99.90
25923;DHT22;13725;51.170;4.442;2022-10-17T05:52:41;17.20;99.90
25923;DHT22;13725;51.170;4.442;2022-10-17T05:55:11;17.20;99.90
25923;DHT22;13725;51.170;4.442;2022-10-17T05:57:37;17.30;99.90
25923;DHT22;13725;51.170;4.442;2022-10-17T06:00:07;17.20;99.90
25923;DHT22;13725;51.170;4.442;2022-10-17T06:02:50;17.30;99.90
25923;DHT22;13725;51.170;4.442;2022-10-17T06:05:17;17.20;99.90
25923;DHT22;13725;51.170;4.442;2022-10-17T06:07:43;17.20;99.90
25923;DHT22;13725;51.170;4.442;2022-10-17T06:10:09;17.20;99.90
25923;DHT22;13725;51.170;4.442;2022-10-17T06:12:38;17.40;99.90
25923;DHT22;13725;51.170;4.442;2022-10-17T06:15:04;17.40;99.90
25923;DHT22;13725;51.170;4.442;2022-10-17T06:17:30;17.40;99.90
25923;DHT22;13725;51.170;4.442;2022-10-17T06:19:56;17.50;99.90
25923;DHT22;13725;51.170;4.442;2022-10-17T06:22:22;17.50;99.90
25923;DHT22;13725;51.170;4.442;2022-10-17T06:24:48;17.50;99.90
25923;DHT22;13725;51.170;4.442;2022-10-17T06:27:14;17.50;99.90
25923;DHT22;13725;51.170;4.442;2022-10-17T06:29:40;17.50;99.90
25923;DHT22;13725;51.170;4.442;2022-10-17T06:32:06;17.50;99.90
25923;DHT22;13725;51.170;4.442;2022-10-17T06:34:32;17.50;99.90
25923;DHT22;13725;51.170;4.442;2022-10-17T06:36:59;17.50;99.90
25923;DHT22;13725;51.170;4.442;2022-10-17T06:39:24;17.50;99.90
25923;DHT22;13725;51.170;4.442;2022-10-17T06:42:03;17.60;99.90
25923;DHT22;13725;51.170;4.442;2022-10-17T06:44:47;17.60;99.90
25923;DHT22;13725;51.170;4.442;2022-10-17T06:47:36;17.50;99.90
25923;DHT22;13725;51.170;4.442;2022-10-17T06:50:11;17.50;99.90
25923;DHT22;13725;51.170;4.442;2022-10-17T06:52:51;17.40;99.90
25923;DHT22;13725;51.170;4.442;2022-10-17T06:55:44;17.50;99.90
25923;DHT22;13725;51.170;4.442;2022-10-17T06:58:19;17.40;99.90
25923;DHT22;13725;51.170;4.442;2022-10-17T07:01:14;17.30;99.90
25923;DHT22;13725;51.170;4.442;2022-10-17T07:03:42;17.30;99.90
25923;DHT22;13725;51.170;4.442;2022-10-17T07:06:10;17.10;99.90
25923;DHT22;13725;51.170;4.442;2022-10-17T07:08:41;17.00;99.90
25923;DHT22;13725;51.170;4.442;2022-10-17T07:11:14;17.00;99.90
25923;DHT22;13725;51.170;4.442;2022-10-17T07:13:41;17.00;99.90
25923;DHT22;13725;51.170;4.442;2022-10-17T07:16:07;17.00;99.90
25923;DHT22;13725;51.170;4.442;2022-10-17T07:18:34;17.00;99.90
25923;DHT22;13725;51.170;4.442;2022-10-17T07:21:00;17.00;99.90
25923;DHT22;13725;51.170;4.442;2022-10-17T07:23:26;17.10;99.90
25923;DHT22;13725;51.170;4.442;2022-10-17T07:25:57;17.10;99.90
25923;DHT22;13725;51.170;4.442;2022-10-17T07:28:24;17.10;99.90
25923;DHT22;13725;51.170;4.442;2022-10-17T07:30:50;17.10;99.90
25923;DHT22;13725;51.170;4.442;2022-10-17T07:33:16;17.10;99.90
25923;DHT22;13725;51.170;4.442;2022-10-17T07:35:43;17.20;99.90
25923;DHT22;13725;51.170;4.442;2022-10-17T07:38:09;17.20;99.90
25923;DHT22;13725;51.170;4.442;2022-10-17T07:40:36;17.20;99.90
25923;DHT22;13725;51.170;4.442;2022-10-17T07:43:02;17.10;99.90
25923;DHT22;13725;51.170;4.442;2022-10-17T07:45:29;17.10;99.90
25923;DHT22;13725;51.170;4.442;2022-10-17T07:47:58;17.10;99.90
25923;DHT22;13725;51.170;4.442;2022-10-17T07:50:24;17.10;99.90
25923;DHT22;13725;51.170;4.442;2022-10-17T07:52:50;17.10;99.90
25923;DHT22;13725;51.170;4.442;2022-10-17T07:55:16;17.10;99.90
25923;DHT22;13725;51.170;4.442;2022-10-17T07:57:42;17.00;99.90
25923;DHT22;13725;51.170;4.442;2022-10-17T08:00:08;17.00;99.90
25923;DHT22;13725;51.170;4.442;2022-10-17T08:02:38;17.00;99.90
25923;DHT22;13725;51.170;4.442;2022-10-17T08:05:04;17.00;99.90
25923;DHT22;13725;51.170;4.442;2022-10-17T08:07:31;17.00;99.90
25923;DHT22;13725;51.170;4.442;2022-10-17T08:09:56;17.00;99.90
25923;DHT22;13725;51.170;4.442;2022-10-17T08:12:22;17.10;99.90
25923;DHT22;13725;51.170;4.442;2022-10-17T08:14:49;17.10;99.90
25923;DHT22;13725;51.170;4.442;2022-10-17T08:17:15;17.10;99.90
25923;DHT22;13725;51.170;4.442;2022-10-17T08:19:40;17.10;99.90
25923;DHT22;13725;51.170;4.442;2022-10-17T08:22:07;17.10;99.90
25923;DHT22;13725;51.170;4.442;2022-10-17T08:24:33;17.20;99.90
25923;DHT22;13725;51.170;4.442;2022-10-17T08:26:58;17.10;99.90
25923;DHT22;13725;51.170;4.442;2022-10-17T08:29:25;17.20;99.90
25923;DHT22;13725;51.170;4.442;2022-10-17T08:31:51;17.20;99.90
25923;DHT22;13725;51.170;4.442;2022-10-17T08:34:17;17.10;99.90
25923;DHT22;13725;51.170;4.442;2022-10-17T08:36:43;17.20;99.90
25923;DHT22;13725;51.170;4.442;2022-10-17T08:39:09;17.10;99.90
25923;DHT22;13725;51.170;4.442;2022-10-17T08:46:56;17.00;99.90
25923;DHT22;13725;51.170;4.442;2022-10-17T08:49:41;17.00;99.90
25923;DHT22;13725;51.170;4.442;2022-10-17T08:55:04;17.00;99.90
25923;DHT22;13725;51.170;4.442;2022-10-17T08:57:36;17.00;99.90
25923;DHT22;13725;51.170;4.442;2022-10-17T09:00:02;17.10;99.90
25923;DHT22;13725;51.170;4.442;2022-10-17T09:02:34;17.10;99.90
25923;DHT22;13725;51.170;4.442;2022-10-17T09:16:38;17.20;99.90
25923;DHT22;13725;51.170;4.442;2022-10-17T09:19:23;17.40;99.90
25923;DHT22;13725;51.170;4.442;2022-10-17T09:21:55;17.50;99.90
25923;DHT22;13725;51.170;4.442;2022-10-17T09:24:47;17.60;99.90
25923;DHT22;13725;51.170;4.442;2022-10-17T09:27:31;17.60;99.90
25923;DHT22;13725;51.170;4.442;2022-10-17T09:32:47;17.60;99.90
25923;DHT22;13725;51.170;4.442;2022-10-17T09:35:13;17.50;99.90
25923;DHT22;13725;51.170;4.442;2022-10-17T09:37:40;17.50;99.90
25923;DHT22;13725;51.170;4.442;2022-10-17T09:40:11;17.60;99.90
25923;DHT22;13725;51.170;4.442;2022-10-17T09:42:44;17.70;99.90
25923;DHT22;13725;51.170;4.442;2022-10-17T09:45:18;17.80;99.90
25923;DHT22;13725;51.170;4.442;2022-10-17T09:48:09;17.80;99.90
25923;DHT22;13725;51.170;4.442;2022-10-17T09:50:35;17.80;99.90
25923;DHT22;13725;51.170;4.442;2022-10-17T09:53:14;17.80;99.90
25923;DHT22;13725;51.170;4.442;2022-10-17T09:55:52;17.80;99.90
25923;DHT22;13725;51.170;4.442;2022-10-17T09:58:20;17.80;99.90
25923;DHT22;13725;51.170;4.442;2022-10-17T10:00:46;17.80;99.90
25923;DHT22;13725;51.170;4.442;2022-10-17T10:03:23;17.90;99.90
25923;DHT22;13725;51.170;4.442;2022-10-17T10:08:31;18.00;99.90
25923;DHT22;13725;51.170;4.442;2022-10-17T10:11:04;18.00;99.90
25923;DHT22;13725;51.170;4.442;2022-10-17T10:13:32;18.00;99.90
25923;DHT22;13725;51.170;4.442;2022-10-17T10:16:22;18.00;99.90
25923;DHT22;13725;51.170;4.442;2022-10-17T10:18:49;18.10;99.90
25923;DHT22;13725;51.170;4.442;2022-10-17T10:21:24;18.10;99.90
25923;DHT22;13725;51.170;4.442;2022-10-17T10:26:43;18.20;99.90
25923;DHT22;13725;51.170;4.442;2022-10-17T10:31:47;18.40;99.90
25923;DHT22;13725;51.170;4.442;2022-10-17T10:34:24;18.40;99.90
25923;DHT22;13725;51.170;4.442;2022-10-17T10:39:34;18.50;99.90
25923;DHT22;13725;51.170;4.442;2022-10-17T10:42:03;18.40;99.90
25923;DHT22;13725;51.170;4.442;2022-10-17T10:44:31;18.40;99.90
25923;DHT22;13725;51.170;4.442;2022-10-17T10:49:32;18.40;99.90
25923;DHT22;13725;51.170;4.442;2022-10-17T10:51:59;18.40;99.90
25923;DHT22;13725;51.170;4.442;2022-10-17T10:54:56;18.40;99.90
25923;DHT22;13725;51.170;4.442;2022-10-17T10:57:26;18.40;99.90
25923;DHT22;13725;51.170;4.442;2022-10-17T11:00:09;18.30;99.90
25923;DHT22;13725;51.170;4.442;2022-10-17T11:03:08;18.40;99.90
25923;DHT22;13725;51.170;4.442;2022-10-17T11:08:33;18.40;99.90
25923;DHT22;13725;51.170;4.442;2022-10-17T11:11:12;18.50;99.90
25923;DHT22;13725;51.170;4.442;2022-10-17T11:13:53;18.70;99.90
25923;DHT22;13725;51.170;4.442;2022-10-17T11:17:04;18.80;99.90
25923;DHT22;13725;51.170;4.442;2022-10-17T11:22:15;18.90;99.90
25923;DHT22;13725;51.170;4.442;2022-10-17T11:27:23;19.30;99.90
25923;DHT22;13725;51.170;4.442;2022-10-17T11:29:49;19.30;99.90
25923;DHT22;13725;51.170;4.442;2022-10-17T11:32:19;19.20;99.90
25923;DHT22;13725;51.170;4.442;2022-10-17T11:35:03;19.30;99.90
25923;DHT22;13725;51.170;4.442;2022-10-17T11:37:34;19.30;99.90
25923;DHT22;13725;51.170;4.442;2022-10-17T11:40:02;19.40;99.90
25923;DHT22;13725;51.170;4.442;2022-10-17T11:42:47;19.40;99.90
25923;DHT22;13725;51.170;4.442;2022-10-17T11:45:19;19.50;99.90
25923;DHT22;13725;51.170;4.442;2022-10-17T11:47:50;19.70;99.90
25923;DHT22;13725;51.170;4.442;2022-10-17T11:50:29;19.60;99.90
25923;DHT22;13725;51.170;4.442;2022-10-17T11:52:55;19.60;99.90
25923;DHT22;13725;51.170;4.442;2022-10-17T11:55:26;19.80;99.90
25923;DHT22;13725;51.170;4.442;2022-10-17T12:01:14;20.10;99.90
25923;DHT22;13725;51.170;4.442;2022-10-17T12:04:02;20.20;99.90
25923;DHT22;13725;51.170;4.442;2022-10-17T12:06:44;20.30;99.90
25923;DHT22;13725;51.170;4.442;2022-10-17T12:14:40;20.30;99.90
25923;DHT22;13725;51.170;4.442;2022-10-17T12:17:32;20.40;99.90
25923;DHT22;13725;51.170;4.442;2022-10-17T12:22:52;20.30;99.90
25923;DHT22;13725;51.170;4.442;2022-10-17T12:25:27;20.30;99.90
25923;DHT22;13725;51.170;4.442;2022-10-17T12:28:11;20.20;99.90
25923;DHT22;13725;51.170;4.442;2022-10-17T12:30:49;20.10;99.90
25923;DHT22;13725;51.170;4.442;2022-10-17T12:33:18;20.10;99.90
25923;DHT22;13725;51.170;4.442;2022-10-17T12:35:49;20.00;99.90
25923;DHT22;13725;51.170;4.442;2022-10-17T12:38:21;19.90;99.90
25923;DHT22;13725;51.170;4.442;2022-10-17T12:40:49;19.90;99.90
25923;DHT22;13725;51.170;4.442;2022-10-17T12:46:02;19.70;99.90
25923;DHT22;13725;51.170;4.442;2022-10-17T12:51:07;19.80;99.90
25923;DHT22;13725;51.170;4.442;2022-10-17T12:54:12;19.70;99.90
25923;DHT22;13725;51.170;4.442;2022-10-17T12:56:46;19.70;99.90
25923;DHT22;13725;51.170;4.442;2022-10-17T12:59:17;19.70;99.90
25923;DHT22;13725;51.170;4.442;2022-10-17T13:01:47;19.80;99.90
25923;DHT22;13725;51.170;4.442;2022-10-17T13:04:14;19.90;99.90
25923;DHT22;13725;51.170;4.442;2022-10-17T13:06:46;20.00;99.90
25923;DHT22;13725;51.170;4.442;2022-10-17T13:09:26;20.10;99.90
25923;DHT22;13725;51.170;4.442;2022-10-17T13:11:53;20.10;99.90
25923;DHT22;13725;51.170;4.442;2022-10-17T13:14:20;20.20;99.90
25923;DHT22;13725;51.170;4.442;2022-10-17T13:19:20;20.40;99.90
25923;DHT22;13725;51.170;4.442;2022-10-17T13:21:57;20.40;99.90
25923;DHT22;13725;51.170;4.442;2022-10-17T13:24:35;20.40;99.90
25923;DHT22;13725;51.170;4.442;2022-10-17T13:27:02;20.40;99.90
25923;DHT22;13725;51.170;4.442;2022-10-17T13:29:30;20.50;99.90
25923;DHT22;13725;51.170;4.442;2022-10-17T13:32:04;20.60;99.90
25923;DHT22;13725;51.170;4.442;2022-10-17T13:34:31;20.80;99.90
25923;DHT22;13725;51.170;4.442;2022-10-17T13:37:03;21.00;99.90
25923;DHT22;13725;51.170;4.442;2022-10-17T13:39:33;21.20;99.90
25923;DHT22;13725;51.170;4.442;2022-10-17T13:42:00;21.30;99.90
25923;DHT22;13725;51.170;4.442;2022-10-17T13:44:32;21.50;99.90
25923;DHT22;13725;51.170;4.442;2022-10-17T13:46:58;21.60;99.90
25923;DHT22;13725;51.170;4.442;2022-10-17T13:49:35;21.70;99.90
25923;DHT22;13725;51.170;4.442;2022-10-17T13:52:03;21.60;99.90
25923;DHT22;13725;51.170;4.442;2022-10-17T13:54:41;21.60;99.90
25923;DHT22;13725;51.170;4.442;2022-10-17T13:59:53;21.40;99.90
25923;DHT22;13725;51.170;4.442;2022-10-17T14:02:27;21.30;99.90
25923;DHT22;13725;51.170;4.442;2022-10-17T14:07:39;21.20;99.90
25923;DHT22;13725;51.170;4.442;2022-10-17T14:10:17;21.20;99.90
25923;DHT22;13725;51.170;4.442;2022-10-17T14:12:43;21.10;99.90
25923;DHT22;13725;51.170;4.442;2022-10-17T14:15:13;21.10;99.90
25923;DHT22;13725;51.170;4.442;2022-10-17T14:17:39;21.10;99.90
25923;DHT22;13725;51.170;4.442;2022-10-17T14:20:06;21.00;99.90
25923;DHT22;13725;51.170;4.442;2022-10-17T14:22:35;21.10;99.90
25923;DHT22;13725;51.170;4.442;2022-10-17T14:25:02;21.00;99.90
25923;DHT22;13725;51.170;4.442;2022-10-17T14:27:53;21.00;99.90
25923;DHT22;13725;51.170;4.442;2022-10-17T14:30:30;21.10;99.90
25923;DHT22;13725;51.170;4.442;2022-10-17T14:32:58;21.00;99.90
25923;DHT22;13725;51.170;4.442;2022-10-17T14:35:25;21.00;99.90
25923;DHT22;13725;51.170;4.442;2022-10-17T14:37:52;21.00;99.90
25923;DHT22;13725;51.170;4.442;2022-10-17T14:40:24;20.90;99.90
25923;DHT22;13725;51.170;4.442;2022-10-17T14:42:53;20.90;99.90
25923;DHT22;13725;51.170;4.442;2022-10-17T14:45:26;20.80;99.90
25923;DHT22;13725;51.170;4.442;2022-10-17T14:47:55;20.80;99.90
25923;DHT22;13725;51.170;4.442;2022-10-17T14:50:27;20.80;99.90
25923;DHT22;13725;51.170;4.442;2022-10-17T14:53:21;20.80;99.90
25923;DHT22;13725;51.170;4.442;2022-10-17T14:55:59;20.70;99.90
25923;DHT22;13725;51.170;4.442;2022-10-17T14:58:27;20.60;99.90
25923;DHT22;13725;51.170;4.442;2022-10-17T15:00:53;20.60;99.90
25923;DHT22;13725;51.170;4.442;2022-10-17T15:03:20;20.50;99.90
25923;DHT22;13725;51.170;4.442;2022-10-17T15:05:46;20.40;99.90
25923;DHT22;13725;51.170;4.442;2022-10-17T15:08:14;20.30;99.90
25923;DHT22;13725;51.170;4.442;2022-10-17T15:10:40;20.30;99.90
25923;DHT22;13725;51.170;4.442;2022-10-17T15:13:10;20.30;99.90
25923;DHT22;13725;51.170;4.442;2022-10-17T15:15:37;20.20;99.90
25923;DHT22;13725;51.170;4.442;2022-10-17T15:18:04;20.20;99.90
25923;DHT22;13725;51.170;4.442;2022-10-17T15:20:30;20.20;99.90
25923;DHT22;13725;51.170;4.442;2022-10-17T15:22:59;20.10;99.90
25923;DHT22;13725;51.170;4.442;2022-10-17T15:25:26;20.10;99.90
25923;DHT22;13725;51.170;4.442;2022-10-17T15:27:52;20.00;99.90
25923;DHT22;13725;51.170;4.442;2022-10-17T15:30:27;19.90;99.90
25923;DHT22;13725;51.170;4.442;2022-10-17T15:32:53;19.90;99.90
25923;DHT22;13725;51.170;4.442;2022-10-17T15:35:20;19.80;99.90
25923;DHT22;13725;51.170;4.442;2022-10-17T15:37:46;19.70;99.90
25923;DHT22;13725;51.170;4.442;2022-10-17T15:40:24;19.70;99.90
25923;DHT22;13725;51.170;4.442;2022-10-17T15:42:50;19.70;99.90
25923;DHT22;13725;51.170;4.442;2022-10-17T15:45:18;19.60;99.90
25923;DHT22;13725;51.170;4.442;2022-10-17T15:47:54;19.50;99.90
25923;DHT22;13725;51.170;4.442;2022-10-17T15:50:21;19.40;99.90
25923;DHT22;13725;51.170;4.442;2022-10-17T15:52:47;19.40;99.90
25923;DHT22;13725;51.170;4.442;2022-10-17T15:55:16;19.30;99.90
25923;DHT22;13725;51.170;4.442;2022-10-17T15:57:44;19.20;99.90
25923;DHT22;13725;51.170;4.442;2022-10-17T16:00:22;19.20;99.90
25923;DHT22;13725;51.170;4.442;2022-10-17T16:02:48;19.20;99.90
25923;DHT22;13725;51.170;4.442;2022-10-17T16:07:43;19.00;99.90
25923;DHT22;13725;51.170;4.442;2022-10-17T16:10:11;19.00;99.90
25923;DHT22;13725;51.170;4.442;2022-10-17T16:12:38;18.90;99.90
25923;DHT22;13725;51.170;4.442;2022-10-17T16:15:11;18.80;99.90
25923;DHT22;13725;51.170;4.442;2022-10-17T16:17:37;18.80;99.90
25923;DHT22;13725;51.170;4.442;2022-10-17T16:20:03;18.70;99.90
25923;DHT22;13725;51.170;4.442;2022-10-17T16:22:31;18.60;99.90
25923;DHT22;13725;51.170;4.442;2022-10-17T16:24:57;18.60;99.90
25923;DHT22;13725;51.170;4.442;2022-10-17T16:27:32;18.50;99.90
25923;DHT22;13725;51.170;4.442;2022-10-17T16:29:58;18.40;99.90
25923;DHT22;13725;51.170;4.442;2022-10-17T16:32:23;18.40;99.90
25923;DHT22;13725;51.170;4.442;2022-10-17T16:34:49;18.30;99.90
25923;DHT22;13725;51.170;4.442;2022-10-17T16:37:15;18.30;99.90
25923;DHT22;13725;51.170;4.442;2022-10-17T16:39:40;18.20;99.90
25923;DHT22;13725;51.170;4.442;2022-10-17T16:42:06;18.10;99.90
25923;DHT22;13725;51.170;4.442;2022-10-17T16:44:32;18.10;99.90
25923;DHT22;13725;51.170;4.442;2022-10-17T16:46:57;18.00;99.90
25923;DHT22;13725;51.170;4.442;2022-10-17T16:49:23;18.00;99.90
25923;DHT22;13725;51.170;4.442;2022-10-17T16:51:49;17.90;99.90
25923;DHT22;13725;51.170;4.442;2022-10-17T16:54:14;17.90;99.90
25923;DHT22;13725;51.170;4.442;2022-10-17T16:56:40;17.80;99.90
25923;DHT22;13725;51.170;4.442;2022-10-17T16:59:06;17.80;99.90
25923;DHT22;13725;51.170;4.442;2022-10-17T17:01:33;17.80;99.90
25923;DHT22;13725;51.170;4.442;2022-10-17T17:04:00;17.80;99.90
25923;DHT22;13725;51.170;4.442;2022-10-17T17:06:29;17.70;99.90
25923;DHT22;13725;51.170;4.442;2022-10-17T17:08:55;17.70;99.90
25923;DHT22;13725;51.170;4.442;2022-10-17T17:11:23;17.70;99.90
25923;DHT22;13725;51.170;4.442;2022-10-17T17:13:49;17.70;99.90
25923;DHT22;13725;51.170;4.442;2022-10-17T17:16:18;17.60;99.90
25923;DHT22;13725;51.170;4.442;2022-10-17T17:18:46;17.60;99.90
25923;DHT22;13725;51.170;4.442;2022-10-17T17:21:14;17.60;99.90
25923;DHT22;13725;51.170;4.442;2022-10-17T17:23:41;17.50;99.90
25923;DHT22;13725;51.170;4.442;2022-10-17T17:26:10;17.50;99.90
25923;DHT22;13725;51.170;4.442;2022-10-17T17:28:37;17.50;99.90
25923;DHT22;13725;51.170;4.442;2022-10-17T17:31:09;17.40;99.90
25923;DHT22;13725;51.170;4.442;2022-10-17T17:33:39;17.40;99.90
25923;DHT22;13725;51.170;4.442;2022-10-17T17:36:05;17.40;99.90
25923;DHT22;13725;51.170;4.442;2022-10-17T17:38:33;17.40;99.90
25923;DHT22;13725;51.170;4.442;2022-10-17T17:41:00;17.40;99.90
25923;DHT22;13725;51.170;4.442;2022-10-17T17:43:26;17.40;99.90
25923;DHT22;13725;51.170;4.442;2022-10-17T17:45:52;17.40;99.90
25923;DHT22;13725;51.170;4.442;2022-10-17T17:48:18;17.40;99.90